Time;durP1;ratioP1;P1;durP2;ratioP2;P2;SDS_P1;SDS_P2;PMS_P1;PMS_P2;Temp;Humidity;BMP_temperature;BMP_pressure;BME280_temperature;BME280_humidity;BME280_pressure;Samples;Min_cycle;Max_cycle;Signal;HPM_P1;HPM_P2
2020/12/30 00:02:27;;;;;;;7.50;4.67;;;0.60;99.90;;;;;;5051717;28;20043;-84
2020/12/30 00:04:53;;;;;;;8.27;4.57;;;0.50;99.90;;;;;;5050415;28;20114;-84
2020/12/30 00:07:19;;;;;;;7.80;4.57;;;0.40;99.90;;;;;;5051955;28;20063;-84
2020/12/30 00:09:44;;;;;;;8.13;4.47;;;0.40;99.90;;;;;;5051958;28;20821;-84
2020/12/30 00:12:10;;;;;;;7.03;4.57;;;0.30;99.90;;;;;;5051949;28;20059;-84
2020/12/30 00:14:35;;;;;;;7.90;4.20;;;0.20;99.90;;;;;;5051906;28;20040;-84
2020/12/30 00:17:03;;;;;;;9.77;4.73;;;0.20;99.90;;;;;;5051739;28;20362;-84
2020/12/30 00:19:29;;;;;;;5.77;4.03;;;0.10;99.90;;;;;;5051947;28;20040;-84
2020/12/30 00:21:54;;;;;;;9.50;4.73;;;0.10;99.90;;;;;;5051818;28;20432;-84
2020/12/30 00:24:20;;;;;;;6.17;4.40;;;0.00;99.90;;;;;;5054585;28;20405;-84
2020/12/30 00:26:45;;;;;;;8.37;4.87;;;-0.10;99.90;;;;;;5061714;28;20029;-84
2020/12/30 00:29:11;;;;;;;5.53;3.97;;;-0.10;99.90;;;;;;5066312;28;20089;-84
2020/12/30 00:31:37;;;;;;;8.23;4.60;;;-0.20;99.90;;;;;;5051634;28;20025;-83
2020/12/30 00:34:02;;;;;;;8.67;4.80;;;-0.30;99.90;;;;;;5051898;28;20033;-84
2020/12/30 00:36:28;;;;;;;7.93;4.73;;;-0.40;99.90;;;;;;5050079;28;20029;-84
2020/12/30 00:38:53;;;;;;;9.40;4.73;;;-0.40;99.90;;;;;;5051341;28;20032;-83
2020/12/30 00:41:19;;;;;;;9.27;5.43;;;-0.50;99.90;;;;;;5051550;28;20033;-83
2020/12/30 00:43:44;;;;;;;9.63;6.10;;;-0.50;99.90;;;;;;5050180;28;20021;-84
2020/12/30 00:46:19;;;;;;;12.07;6.17;;;-0.50;99.90;;;;;;5050442;28;20029;-83
2020/12/30 00:48:44;;;;;;;16.50;8.48;;;-0.60;99.90;;;;;;5049789;28;20029;-83
2020/12/30 00:51:14;;;;;;;21.73;10.07;;;-0.60;99.90;;;;;;5051329;28;20025;-83
2020/12/30 00:53:40;;;;;;;14.27;7.57;;;-0.60;99.90;;;;;;5051015;28;20118;-83
2020/12/30 00:56:10;;;;;;;14.17;7.53;;;-0.70;99.90;;;;;;5051299;28;20073;-83
2020/12/30 00:58:37;;;;;;;10.67;6.27;;;-0.70;99.90;;;;;;5050799;28;20104;-83
2020/12/30 01:01:08;;;;;;;9.90;5.43;;;-0.70;99.90;;;;;;5051131;28;20097;-83
2020/12/30 01:03:34;;;;;;;8.47;4.53;;;-0.70;99.90;;;;;;5050342;28;20036;-83
2020/12/30 01:06:00;;;;;;;9.07;5.07;;;-0.70;99.90;;;;;;5050756;28;20386;-83
2020/12/30 01:08:26;;;;;;;9.50;5.50;;;-0.70;99.90;;;;;;5050623;28;20416;-83
2020/12/30 01:10:52;;;;;;;8.70;5.40;;;-0.70;99.90;;;;;;5051053;28;20028;-83
2020/12/30 01:13:18;;;;;;;10.47;5.27;;;-0.70;99.90;;;;;;5050566;28;20470;-83
2020/12/30 01:15:44;;;;;;;8.33;5.20;;;-0.80;99.90;;;;;;5050868;28;20021;-83
2020/12/30 01:18:10;;;;;;;8.33;4.77;;;-0.80;99.90;;;;;;5050282;28;20478;-83
2020/12/30 01:20:35;;;;;;;7.13;5.10;;;-0.90;99.90;;;;;;5050774;28;20067;-83
2020/12/30 01:23:01;;;;;;;10.73;5.43;;;-0.90;99.90;;;;;;5050291;28;20073;-83
2020/12/30 01:25:27;;;;;;;13.40;5.50;;;-0.90;99.90;;;;;;5050551;28;20021;-83
2020/12/30 01:27:53;;;;;;;12.97;5.20;;;-1.00;99.90;;;;;;5050803;28;20021;-83
2020/12/30 01:30:18;;;;;;;9.67;5.40;;;-0.90;99.90;;;;;;5050138;28;20044;-83
2020/12/30 01:32:44;;;;;;;7.90;5.13;;;-1.00;99.90;;;;;;5050318;28;20489;-83
2020/12/30 01:35:10;;;;;;;10.07;5.43;;;-1.00;99.90;;;;;;5050086;28;20382;-83
2020/12/30 01:37:35;;;;;;;9.47;4.77;;;-1.10;99.90;;;;;;5050278;28;20857;-83
2020/12/30 01:40:01;;;;;;;9.13;4.80;;;-1.10;99.90;;;;;;5049011;28;20075;-83
2020/12/30 01:42:27;;;;;;;14.63;5.50;;;-1.10;99.90;;;;;;5050302;28;20123;-83
2020/12/30 01:44:52;;;;;;;11.07;5.70;;;-1.10;99.90;;;;;;5049778;28;20465;-83
2020/12/30 01:47:19;;;;;;;8.17;4.97;;;-1.20;99.90;;;;;;5050088;28;20485;-83
2020/12/30 01:49:46;;;;;;;11.50;5.03;;;-1.20;99.90;;;;;;5050311;28;20028;-83
2020/12/30 01:52:13;;;;;;;9.60;5.77;;;-1.30;99.90;;;;;;5032294;28;20114;-83
2020/12/30 01:54:38;;;;;;;10.37;5.93;;;-1.30;99.90;;;;;;5050206;28;20033;-83
2020/12/30 01:57:04;;;;;;;11.90;7.10;;;-1.30;99.90;;;;;;5051209;28;20029;-85
2020/12/30 01:59:29;;;;;;;9.97;5.80;;;-1.30;99.90;;;;;;5050642;28;20031;-85
2020/12/30 02:02:06;;;;;;;7.97;5.07;;;-1.30;99.90;;;;;;5051708;28;20102;-85
2020/12/30 02:04:41;;;;;;;9.33;6.10;;;-1.30;99.90;;;;;;5051853;28;20569;-85
2020/12/30 02:07:06;;;;;;;;;;;-1.30;99.90;;;;;;5052167;28;20493;-85
2020/12/30 02:09:32;;;;;;;8.60;4.90;;;-1.40;99.90;;;;;;5050113;28;19905;-85
2020/12/30 02:12:00;;;;;;;11.07;5.10;;;-1.40;99.90;;;;;;5051362;28;20505;-85
2020/12/30 02:14:25;;;;;;;7.83;5.10;;;-1.40;99.90;;;;;;5053200;28;20029;-85
2020/12/30 02:16:53;;;;;;;8.10;4.90;;;-1.40;99.90;;;;;;5055139;28;20059;-85
2020/12/30 02:19:19;;;;;;;8.53;5.00;;;-1.40;99.90;;;;;;5053978;28;20045;-85
2020/12/30 02:21:45;;;;;;;10.13;5.20;;;-1.40;99.90;;;;;;5053870;28;20121;-85
2020/12/30 02:24:21;;;;;;;10.80;6.03;;;-1.40;99.90;;;;;;5036103;28;20124;-85
2020/12/30 02:26:46;;;;;;;8.13;4.87;;;-1.40;99.90;;;;;;5037053;28;20052;-85
2020/12/30 02:29:12;;;;;;;7.53;5.33;;;-1.40;99.90;;;;;;5054931;28;20072;-85
2020/12/30 02:31:37;;;;;;;10.13;5.83;;;-1.40;99.90;;;;;;5055011;28;20035;-85
2020/12/30 02:34:03;;;;;;;8.17;5.20;;;-1.40;99.90;;;;;;5055452;28;20029;-85
2020/12/30 02:36:29;;;;;;;10.60;5.53;;;-1.40;99.90;;;;;;5055636;28;20036;-85
2020/12/30 02:38:55;;;;;;;8.77;5.40;;;-1.40;99.90;;;;;;5055315;28;20484;-85
2020/12/30 02:41:21;;;;;;;9.33;5.20;;;-1.50;99.90;;;;;;5053397;28;20029;-85
2020/12/30 02:43:47;;;;;;;9.07;5.90;;;-1.40;99.90;;;;;;5053145;28;20485;-85
2020/12/30 02:46:13;;;;;;;10.13;5.47;;;-1.40;99.90;;;;;;5055032;28;20116;-85
2020/12/30 02:48:38;;;;;;;9.20;5.87;;;-1.50;99.90;;;;;;5055286;28;20104;-85
2020/12/30 02:51:04;;;;;;;8.00;5.23;;;-1.40;99.90;;;;;;5055511;28;20017;-85
2020/12/30 02:53:29;;;;;;;8.43;5.27;;;-1.40;99.90;;;;;;5055259;28;20033;-85
2020/12/30 02:55:55;;;;;;;9.23;5.40;;;-1.40;99.90;;;;;;5036511;28;20094;-85
2020/12/30 02:58:20;;;;;;;9.17;5.67;;;-1.50;99.90;;;;;;5036643;28;20017;-85
2020/12/30 03:00:46;;;;;;;11.97;5.80;;;-1.40;99.90;;;;;;5055205;28;20029;-85
2020/12/30 03:03:11;;;;;;;10.70;6.10;;;-1.50;99.90;;;;;;5055020;28;20449;-85
2020/12/30 03:05:37;;;;;;;11.43;6.63;;;-1.40;99.90;;;;;;5054923;28;20024;-85
2020/12/30 03:08:02;;;;;;;11.87;6.83;;;-1.40;99.90;;;;;;5054769;28;20386;-84
2020/12/30 03:10:28;;;;;;;11.07;7.00;;;-1.40;99.90;;;;;;5054937;28;20095;-85
2020/12/30 03:12:53;;;;;;;13.77;5.93;;;-1.30;99.90;;;;;;5054452;28;20029;-85
2020/12/30 03:15:19;;;;;;;10.23;6.63;;;-1.30;99.90;;;;;;5054646;28;20040;-85
2020/12/30 03:17:44;;;;;;;8.97;6.90;;;-1.30;99.90;;;;;;5054789;28;20406;-84
2020/12/30 03:20:10;;;;;;;11.13;6.77;;;-1.30;99.90;;;;;;5054793;28;20373;-85
2020/12/30 03:22:35;;;;;;;10.37;6.43;;;-1.30;99.90;;;;;;5054616;28;20036;-84
2020/12/30 03:25:02;;;;;;;10.83;6.87;;;-1.20;99.90;;;;;;5054641;28;20033;-85
2020/12/30 03:27:27;;;;;;;9.60;6.40;;;-1.20;99.90;;;;;;5054154;28;20029;-85
2020/12/30 03:29:53;;;;;;;11.33;6.43;;;-1.20;99.90;;;;;;5054693;28;20025;-85
2020/12/30 03:32:19;;;;;;;9.00;6.30;;;-1.10;99.90;;;;;;5054736;28;20075;-85
2020/12/30 03:34:44;;;;;;;10.30;6.20;;;-1.10;99.90;;;;;;5054554;28;20308;-85
2020/12/30 03:37:10;;;;;;;9.70;5.87;;;-1.00;99.90;;;;;;5054114;28;20422;-85
2020/12/30 03:39:36;;;;;;;10.33;5.40;;;-1.00;99.90;;;;;;5054373;28;20036;-85
2020/12/30 03:42:01;;;;;;;6.43;4.23;;;-0.90;99.90;;;;;;5054220;28;20331;-85
2020/12/30 03:44:27;;;;;;;7.87;4.70;;;-0.80;99.90;;;;;;5054565;28;20017;-85
2020/12/30 03:46:52;;;;;;;6.60;4.40;;;-0.70;99.90;;;;;;5043016;28;20132;-86
2020/12/30 03:49:18;;;;;;;7.20;4.47;;;-0.70;99.90;;;;;;5053670;28;20452;-85
2020/12/30 03:51:43;;;;;;;8.17;4.53;;;-0.60;99.90;;;;;;5053788;28;20031;-85
2020/12/30 03:54:09;;;;;;;7.50;4.70;;;-0.60;99.90;;;;;;5053634;28;20108;-85
2020/12/30 03:56:34;;;;;;;8.50;4.63;;;-0.50;99.90;;;;;;5053637;28;20109;-85
2020/12/30 03:59:00;;;;;;;11.63;6.40;;;-0.50;99.90;;;;;;5053692;28;20064;-85
2020/12/30 04:01:26;;;;;;;7.70;5.10;;;-0.50;99.90;;;;;;5053370;28;20029;-85
2020/12/30 04:03:51;;;;;;;9.60;4.80;;;-0.50;99.90;;;;;;5053672;28;20385;-85
2020/12/30 04:06:17;;;;;;;8.90;4.57;;;-0.50;99.90;;;;;;5053504;28;20021;-85
2020/12/30 04:08:42;;;;;;;8.83;4.50;;;-0.40;99.90;;;;;;5053187;28;20099;-85
2020/12/30 04:11:08;;;;;;;8.13;4.53;;;-0.40;99.90;;;;;;5053065;28;20362;-85
2020/12/30 04:13:33;;;;;;;5.87;4.20;;;-0.40;99.90;;;;;;5053162;28;20569;-85
2020/12/30 04:15:59;;;;;;;7.00;4.10;;;-0.30;99.90;;;;;;5052987;28;20036;-85
2020/12/30 04:18:25;;;;;;;7.50;4.43;;;-0.30;99.90;;;;;;5052879;28;20174;-85
2020/12/30 04:20:50;;;;;;;9.83;5.17;;;-0.20;99.90;;;;;;5053085;28;20036;-85
2020/12/30 04:23:16;;;;;;;6.27;3.70;;;-0.10;99.90;;;;;;5052502;28;20117;-85
2020/12/30 04:25:47;;;;;;;6.50;3.90;;;-0.10;99.90;;;;;;5034961;28;20029;-85
2020/12/30 04:28:13;;;;;;;6.00;3.53;;;0.00;99.90;;;;;;5052821;28;20044;-85
2020/12/30 04:30:38;;;;;;;6.40;3.90;;;0.10;99.90;;;;;;5052950;28;20061;-85
2020/12/30 04:33:04;;;;;;;6.03;3.80;;;0.10;99.90;;;;;;5034632;28;20112;-84
2020/12/30 04:35:29;;;;;;;7.77;4.77;;;0.10;99.90;;;;;;5052884;28;20423;-85
2020/12/30 04:37:55;;;;;;;6.83;4.40;;;0.20;99.90;;;;;;5052711;28;20027;-85
2020/12/30 04:40:20;;;;;;;6.97;4.57;;;0.20;99.90;;;;;;5051190;28;20464;-85
2020/12/30 04:42:49;;;;;;;9.60;4.27;;;0.20;99.90;;;;;;5052548;28;20029;-85
2020/12/30 04:45:14;;;;;;;7.43;3.73;;;0.20;99.90;;;;;;5052574;28;20043;-85
2020/12/30 04:47:44;;;;;;;5.00;3.43;;;0.20;99.90;;;;;;5045018;28;20016;-85
2020/12/30 04:50:10;;;;;;;6.80;3.63;;;0.10;99.90;;;;;;5034299;28;20121;-85
2020/12/30 04:52:39;;;;;;;7.63;4.00;;;0.10;99.90;;;;;;5052635;28;20190;-85
2020/12/30 04:55:04;;;;;;;8.40;4.40;;;0.10;99.90;;;;;;5052289;28;20369;-85
2020/12/30 04:57:41;;;;;;;7.37;4.40;;;0.10;99.90;;;;;;5050965;28;20021;-85
2020/12/30 05:00:07;;;;;;;7.00;3.93;;;0.10;99.90;;;;;;5034208;28;20025;-85
2020/12/30 05:02:34;;;;;;;6.60;3.80;;;0.00;99.90;;;;;;5033870;28;20020;-85
2020/12/30 05:05:00;;;;;;;5.20;3.53;;;0.00;99.90;;;;;;5051393;28;20017;-85
2020/12/30 05:07:29;;;;;;;5.93;3.97;;;0.00;99.90;;;;;;5050309;28;20381;-85
2020/12/30 05:09:56;;;;;;;6.40;3.70;;;-0.10;99.90;;;;;;5050521;28;20033;-85
2020/12/30 05:12:23;;;;;;;7.53;4.17;;;-0.10;99.90;;;;;;5050797;28;20044;-85
2020/12/30 05:14:49;;;;;;;6.83;4.23;;;-0.10;99.90;;;;;;5050682;28;20029;-84
2020/12/30 05:17:15;;;;;;;6.57;3.83;;;-0.20;99.90;;;;;;5050529;28;20067;-85
2020/12/30 05:19:42;;;;;;;6.47;4.83;;;-0.20;99.90;;;;;;5049764;28;20021;-83
2020/12/30 05:22:17;;;;;;;8.80;5.77;;;-0.20;99.90;;;;;;5048974;28;20033;-84
2020/12/30 05:24:44;;;;;;;8.23;7.03;;;-0.20;99.90;;;;;;5049531;28;20159;-83
2020/12/30 05:27:12;;;;;;;7.50;5.53;;;-0.20;99.90;;;;;;5048900;28;20021;-83
2020/12/30 05:29:41;;;;;;;8.67;5.30;;;-0.20;99.90;;;;;;5049330;28;20017;-83
2020/12/30 05:32:07;;;;;;;8.60;5.40;;;-0.20;99.90;;;;;;5049178;28;20036;-83
2020/12/30 05:34:34;;;;;;;8.47;5.07;;;-0.30;99.90;;;;;;5049367;28;20025;-83
2020/12/30 05:36:59;;;;;;;7.43;5.27;;;-0.30;99.90;;;;;;5049388;28;20123;-83
2020/12/30 05:39:30;;;;;;;7.53;4.90;;;-0.30;99.90;;;;;;5049054;28;20103;-83
2020/12/30 05:42:31;;;;;;;7.60;4.77;;;-0.30;99.90;;;;;;5049193;28;20426;-83
2020/12/30 05:44:57;;;;;;;7.40;3.80;;;-0.30;99.90;;;;;;4964921;28;20442;-83
2020/12/30 05:47:25;;;;;;;8.37;3.60;;;-0.30;99.90;;;;;;5027874;28;20112;-83
2020/12/30 05:49:55;;;;;;;8.20;4.17;;;-0.30;99.90;;;;;;5048688;28;20028;-83
2020/12/30 05:52:25;;;;;;;5.27;3.77;;;-0.30;99.90;;;;;;5048919;28;20051;-83
2020/12/30 05:54:55;;;;;;;5.83;3.73;;;-0.30;99.90;;;;;;5048935;28;20044;-83
2020/12/30 05:57:23;;;;;;;6.50;3.63;;;-0.30;99.90;;;;;;5047866;28;20024;-83
2020/12/30 05:59:52;;;;;;;6.60;3.50;;;-0.30;99.90;;;;;;5048574;28;20420;-83
2020/12/30 06:02:30;;;;;;;6.97;4.87;;;-0.30;99.90;;;;;;5031218;28;20024;-83
2020/12/30 06:05:07;;;;;;;9.93;5.07;;;-0.40;99.90;;;;;;5046986;28;20020;-83
2020/12/30 06:07:35;;;;;;;7.77;4.00;;;-0.40;99.90;;;;;;5048132;28;20079;-83
2020/12/30 06:10:02;;;;;;;5.10;3.63;;;-0.40;99.90;;;;;;5031081;28;20079;-83
2020/12/30 06:12:31;;;;;;;9.73;5.10;;;-0.40;99.90;;;;;;5049870;28;20025;-83
2020/12/30 06:14:57;;;;;;;6.30;4.40;;;-0.40;99.90;;;;;;5048670;28;21354;-83
2020/12/30 06:17:30;;;;;;;7.43;4.90;;;-0.40;99.90;;;;;;5049574;28;20087;-83
2020/12/30 06:19:57;;;;;;;6.33;4.03;;;-0.30;99.90;;;;;;5049387;28;20040;-83
2020/12/30 06:22:24;;;;;;;6.20;4.40;;;-0.30;99.90;;;;;;5031539;28;20139;-83
2020/12/30 06:24:51;;;;;;;5.90;4.27;;;-0.30;99.90;;;;;;5031466;28;20024;-83
2020/12/30 06:27:22;;;;;;;10.13;4.50;;;-0.30;99.90;;;;;;5049744;28;20021;-83
2020/12/30 06:29:50;;;;;;;6.33;4.30;;;-0.30;99.90;;;;;;5039781;28;20033;-83
2020/12/30 06:32:30;;;;;;;6.73;3.77;;;-0.30;99.90;;;;;;5049748;28;20029;-83
2020/12/30 06:34:56;;;;;;;5.37;3.70;;;-0.30;99.90;;;;;;5049358;28;20021;-83
2020/12/30 06:37:30;;;;;;;6.47;4.07;;;-0.30;99.90;;;;;;5049375;28;20063;-83
2020/12/30 06:40:22;;;;;;;6.47;3.60;;;-0.20;99.90;;;;;;5048244;28;20091;-83
2020/12/30 06:42:55;;;;;;;6.33;3.53;;;-0.20;99.90;;;;;;5049423;28;20127;-83
2020/12/30 06:45:48;;;;;;;6.63;3.70;;;-0.30;99.90;;;;;;5049247;28;20458;-83
2020/12/30 06:48:14;;;;;;;3.93;2.93;;;-0.30;99.90;;;;;;5047941;28;20044;-83
2020/12/30 06:50:41;;;;;;;7.53;3.53;;;-0.20;99.90;;;;;;5047923;28;20036;-83
2020/12/30 06:53:28;;;;;;;6.57;3.87;;;-0.20;99.90;;;;;;5049171;28;20127;-83
2020/12/30 06:55:55;;;;;;;6.83;3.33;;;-0.20;99.90;;;;;;5047452;28;20112;-83
2020/12/30 06:58:47;;;;;;;6.07;3.97;;;-0.20;99.90;;;;;;5031251;28;20064;-83
2020/12/30 07:01:19;;;;;;;5.67;3.07;;;-0.10;99.90;;;;;;5047714;28;20025;-83
2020/12/30 07:03:47;;;;;;;6.00;3.30;;;-0.10;99.90;;;;;;5052587;28;20338;-83
2020/12/30 07:06:30;;;;;;;6.83;3.27;;;-0.10;99.90;;;;;;5052482;28;20458;-83
2020/12/30 07:09:02;;;;;;;7.40;3.50;;;0.00;99.90;;;;;;5052440;28;20021;-83
2020/12/30 07:11:36;;;;;;;4.03;3.10;;;-0.10;99.90;;;;;;5051918;28;20028;-83
2020/12/30 07:14:15;;;;;;;6.28;3.10;;;0.00;99.90;;;;;;5052238;28;20032;-83
2020/12/30 07:16:46;;;;;;;5.53;3.43;;;0.00;99.90;;;;;;5050967;28;20028;-83
2020/12/30 07:19:15;;;;;;;6.97;3.43;;;0.00;99.90;;;;;;5052763;28;20021;-83
2020/12/30 07:21:53;;;;;;;5.00;3.30;;;0.10;99.90;;;;;;5052423;28;20369;-83
2020/12/30 07:24:25;;;;;;;4.97;3.27;;;0.10;99.90;;;;;;5051055;28;20033;-84
2020/12/30 07:26:53;;;;;;;5.67;3.47;;;0.10;99.90;;;;;;5052310;28;20036;-84
2020/12/30 07:29:20;;;;;;;6.13;3.47;;;0.10;99.90;;;;;;5053546;28;20431;-85
2020/12/30 07:31:51;;;;;;;6.17;3.20;;;0.20;99.90;;;;;;5054287;28;20032;-86
2020/12/30 07:34:19;;;;;;;6.80;3.87;;;0.20;99.90;;;;;;5055296;28;20027;-83
2020/12/30 07:36:45;;;;;;;6.03;3.83;;;0.20;99.90;;;;;;5055816;28;20027;-81
2020/12/30 07:39:11;;;;;;;5.80;3.20;;;0.20;99.90;;;;;;5037326;28;20341;-81
2020/12/30 07:41:37;;;;;;;5.93;3.30;;;0.20;99.90;;;;;;5057822;28;20029;-81
2020/12/30 07:46:35;;;;;;;7.00;3.43;;;0.30;99.90;;;;;;4983383;28;20050;-84
2020/12/30 07:49:08;;;;;;;6.67;3.10;;;0.30;99.90;;;;;;4992571;28;20023;-80
2020/12/30 07:51:34;;;;;;;7.77;3.30;;;0.30;99.90;;;;;;4987546;28;20023;-83
2020/12/30 07:54:00;;;;;;;5.63;3.43;;;0.30;99.90;;;;;;4966999;28;20485;-81
2020/12/30 07:56:28;;;;;;;5.83;3.23;;;0.20;99.90;;;;;;4992410;28;20459;-86
2020/12/30 07:58:54;;;;;;;6.33;4.00;;;0.30;99.90;;;;;;4975160;28;20025;-87
2020/12/30 08:01:23;;;;;;;5.07;3.40;;;0.30;99.90;;;;;;4990065;28;20018;-86
2020/12/30 08:03:48;;;;;;;5.17;3.43;;;0.30;99.90;;;;;;4996191;28;20037;-84
2020/12/30 08:06:16;;;;;;;5.33;3.30;;;0.30;99.90;;;;;;5007561;28;20018;-83
2020/12/30 08:08:45;;;;;;;7.57;4.07;;;0.30;99.90;;;;;;4999984;28;20064;-84
2020/12/30 08:11:10;;;;;;;6.40;3.83;;;0.40;99.90;;;;;;5011380;28;20036;-84
2020/12/30 08:13:38;;;;;;;8.43;4.10;;;0.40;99.90;;;;;;4988930;28;20030;-84
2020/12/30 08:16:04;;;;;;;6.93;4.10;;;0.50;99.90;;;;;;4990045;28;20026;-84
2020/12/30 08:18:30;;;;;;;6.20;3.93;;;0.50;99.90;;;;;;4989954;28;20026;-84
2020/12/30 08:20:55;;;;;;;6.70;3.93;;;0.70;99.90;;;;;;4989963;28;20105;-84
2020/12/30 08:23:21;;;;;;;5.20;3.10;;;0.70;99.90;;;;;;4972222;28;20057;-84
2020/12/30 08:25:52;;;;;;;6.07;2.73;;;0.90;99.90;;;;;;4990003;28;20030;-84
2020/12/30 08:28:18;;;;;;;3.93;2.57;;;1.00;99.90;;;;;;4989991;28;20075;-84
2020/12/30 08:30:44;;;;;;;5.30;3.00;;;1.20;99.90;;;;;;4976408;28;20026;-84
2020/12/30 08:33:11;;;;;;;6.23;3.10;;;1.30;99.90;;;;;;4989491;28;20494;-84
2020/12/30 08:35:46;;;;;;;4.53;2.63;;;1.30;99.90;;;;;;4989813;28;20476;-84
2020/12/30 08:38:20;;;;;;;6.28;2.33;;;1.30;99.90;;;;;;4989788;28;20026;-84
2020/12/30 08:40:50;;;;;;;5.45;2.60;;;1.30;99.90;;;;;;4989970;28;20102;-84
2020/12/30 08:43:41;;;;;;;4.93;2.30;;;1.40;99.90;;;;;;4966886;28;20486;-84
2020/12/30 08:46:18;;;;;;;3.90;2.60;;;1.40;99.90;;;;;;4968880;28;20067;-84
2020/12/30 08:48:49;;;;;;;4.80;2.60;;;1.40;99.90;;;;;;4968811;28;20076;-85
2020/12/30 08:51:29;;;;;;;5.03;2.30;;;1.50;99.90;;;;;;4969938;28;20031;-85
2020/12/30 08:53:54;;;;;;;4.67;2.50;;;1.60;99.90;;;;;;4969881;28;20068;-85
2020/12/30 08:56:21;;;;;;;5.90;2.77;;;1.60;99.90;;;;;;4970078;28;20034;-85
2020/12/30 08:58:55;;;;;;;3.63;2.50;;;1.60;99.90;;;;;;4969972;28;20054;-85
2020/12/30 09:01:22;;;;;;;4.50;2.43;;;1.70;99.90;;;;;;4969971;28;20088;-85
2020/12/30 09:03:48;;;;;;;5.03;2.50;;;1.80;99.90;;;;;;4969793;28;20072;-84
2020/12/30 09:06:27;;;;;;;5.37;2.70;;;1.90;99.90;;;;;;4980921;28;20480;-85
2020/12/30 09:08:54;;;;;;;4.07;2.60;;;2.00;99.90;;;;;;4969352;28;20464;-84
2020/12/30 09:11:19;;;;;;;5.30;2.80;;;2.10;99.90;;;;;;4974845;28;20486;-85
2020/12/30 09:13:45;;;;;;;5.40;3.17;;;2.20;99.90;;;;;;4982618;28;20030;-85
2020/12/30 09:16:11;;;;;;;6.77;2.97;;;2.20;99.90;;;;;;4972623;28;20387;-85
2020/12/30 09:18:37;;;;;;;3.93;2.53;;;2.30;99.90;;;;;;4967768;28;20023;-85
2020/12/30 09:21:03;;;;;;;6.60;2.73;;;2.30;99.90;;;;;;4969709;28;20027;-85
2020/12/30 09:23:29;;;;;;;5.03;3.03;;;2.30;99.90;;;;;;4968751;28;20102;-85
2020/12/30 09:25:59;;;;;;;4.00;2.60;;;2.30;99.90;;;;;;4970118;28;20408;-85
2020/12/30 09:28:26;;;;;;;5.27;2.70;;;2.30;99.90;;;;;;4969791;28;20023;-85
2020/12/30 09:30:54;;;;;;;6.50;2.70;;;2.40;99.90;;;;;;4974034;28;20027;-85
2020/12/30 09:33:22;;;;;;;5.40;2.70;;;2.40;99.90;;;;;;4982289;28;20088;-85
2020/12/30 09:35:48;;;;;;;4.20;2.67;;;2.40;99.90;;;;;;4959564;28;20053;-85
2020/12/30 09:38:22;;;;;;;3.90;2.33;;;2.40;99.90;;;;;;4969937;28;20027;-85
2020/12/30 09:40:50;;;;;;;4.47;2.60;;;2.40;99.90;;;;;;4969912;28;20023;-85
2020/12/30 09:43:18;;;;;;;4.97;2.87;;;2.40;99.90;;;;;;4968555;28;20497;-85
2020/12/30 09:45:48;;;;;;;6.90;3.83;;;2.40;99.90;;;;;;4968515;28;20126;-85
2020/12/30 09:48:16;;;;;;;6.57;3.37;;;2.40;99.90;;;;;;4970050;28;20408;-85
2020/12/30 09:50:43;;;;;;;6.10;3.23;;;2.40;99.90;;;;;;4965820;28;20022;-86
2020/12/30 09:53:09;;;;;;;5.33;2.63;;;2.30;99.90;;;;;;4993800;28;20137;-85
2020/12/30 09:55:35;;;;;;;4.73;2.97;;;2.30;99.90;;;;;;4976490;28;20224;-86
2020/12/30 09:58:00;;;;;;;6.00;3.10;;;2.20;99.90;;;;;;4969667;28;20062;-86
2020/12/30 10:00:26;;;;;;;6.57;3.23;;;2.20;99.90;;;;;;4969483;28;20039;-86
2020/12/30 10:02:52;;;;;;;6.37;2.80;;;2.10;99.90;;;;;;4968705;28;20452;-85
2020/12/30 10:05:18;;;;;;;4.57;3.00;;;2.10;99.90;;;;;;4968274;28;20030;-85
2020/12/30 10:07:43;;;;;;;4.90;3.10;;;2.10;99.90;;;;;;4982178;28;20039;-86
2020/12/30 10:10:09;;;;;;;7.40;3.30;;;2.00;99.90;;;;;;4969231;28;20057;-85
2020/12/30 10:12:38;;;;;;;4.57;2.83;;;2.00;99.90;;;;;;4983001;28;20053;-85
2020/12/30 10:15:05;;;;;;;5.27;3.20;;;2.00;99.90;;;;;;4987783;28;20035;-86
2020/12/30 10:17:30;;;;;;;4.60;3.13;;;2.00;99.90;;;;;;4975143;28;20038;-85
2020/12/30 10:19:56;;;;;;;5.57;3.30;;;1.90;99.90;;;;;;4970653;28;20464;-85
2020/12/30 10:22:21;;;;;;;7.23;4.67;;;1.90;99.90;;;;;;4969261;28;20063;-85
2020/12/30 10:24:48;;;;;;;8.23;4.83;;;1.90;99.90;;;;;;4978371;28;20036;-85
2020/12/30 10:27:15;;;;;;;5.83;3.53;;;1.90;99.90;;;;;;4977477;28;20023;-85
2020/12/30 10:29:40;;;;;;;8.17;3.73;;;2.00;99.90;;;;;;4974592;28;20397;-85
2020/12/30 10:32:06;;;;;;;8.30;3.37;;;2.00;99.90;;;;;;4988028;28;20030;-85
2020/12/30 10:34:32;;;;;;;5.43;3.27;;;2.10;99.90;;;;;;4982811;28;20494;-85
2020/12/30 10:36:58;;;;;;;4.83;2.77;;;2.20;99.90;;;;;;4973592;28;20031;-86
2020/12/30 10:39:24;;;;;;;4.57;2.63;;;2.20;99.90;;;;;;4972228;28;20050;-84
2020/12/30 10:41:54;;;;;;;3.97;2.57;;;2.30;99.90;;;;;;4987980;28;20046;-84
2020/12/30 10:44:19;;;;;;;4.23;2.70;;;2.40;99.90;;;;;;4989805;28;20031;-84
2020/12/30 10:46:46;;;;;;;4.13;2.57;;;2.40;99.90;;;;;;5006105;28;20141;-85
2020/12/30 10:49:11;;;;;;;5.93;3.67;;;2.40;99.90;;;;;;5011097;28;20120;-84
2020/12/30 10:51:37;;;;;;;6.67;2.80;;;2.50;99.90;;;;;;4981111;28;20022;-85
2020/12/30 10:54:02;;;;;;;4.80;2.63;;;2.50;99.90;;;;;;5004382;28;20023;-85
2020/12/30 10:56:28;;;;;;;8.17;2.70;;;2.60;99.90;;;;;;4972906;28;20421;-85
2020/12/30 10:58:53;;;;;;;6.33;2.17;;;2.70;99.90;;;;;;4993459;28;20032;-85
2020/12/30 11:01:19;;;;;;;3.23;2.10;;;2.80;99.90;;;;;;4996934;28;20026;-85
2020/12/30 11:03:44;;;;;;;4.50;2.33;;;2.90;99.90;;;;;;4985658;28;20038;-85
2020/12/30 11:06:10;;;;;;;4.83;2.47;;;3.00;99.90;;;;;;5003670;28;20408;-85
2020/12/30 11:08:36;;;;;;;3.57;2.20;;;3.10;99.90;;;;;;4982513;28;20022;-85
2020/12/30 11:11:05;;;;;;;5.50;2.40;;;3.20;99.90;;;;;;5000686;28;20501;-85
2020/12/30 11:13:31;;;;;;;4.83;2.33;;;3.40;99.90;;;;;;5011736;28;20022;-88
2020/12/30 11:15:57;;;;;;;4.10;2.30;;;3.50;99.90;;;;;;4981696;28;20026;-88
2020/12/30 11:18:22;;;;;;;4.47;2.40;;;3.50;99.90;;;;;;4992678;28;20079;-84
2020/12/30 11:20:48;;;;;;;3.67;2.10;;;3.50;99.90;;;;;;4969946;28;20026;-81
2020/12/30 11:23:15;;;;;;;4.10;2.37;;;3.60;99.90;;;;;;5000323;28;20026;-81
2020/12/30 11:25:45;;;;;;;3.67;2.53;;;3.70;99.90;;;;;;4999127;28;20026;-84
2020/12/30 11:28:11;;;;;;;6.27;2.80;;;3.80;99.90;;;;;;4989707;28;20034;-85
2020/12/30 11:30:37;;;;;;;4.10;2.60;;;3.80;99.90;;;;;;4990035;28;20026;-84
2020/12/30 11:33:03;;;;;;;5.30;3.20;;;3.90;99.90;;;;;;4990675;28;20030;-88
2020/12/30 11:35:29;;;;;;;4.83;2.70;;;3.90;99.90;;;;;;4990676;28;20034;-88
2020/12/30 11:37:55;;;;;;;5.33;2.70;;;3.90;99.90;;;;;;4990942;28;20022;-83
2020/12/30 11:40:21;;;;;;;3.07;2.03;;;4.00;99.90;;;;;;4992520;28;20038;-83
2020/12/30 11:42:46;;;;;;;6.00;2.50;;;4.10;99.90;;;;;;4992224;28;20431;-83
2020/12/30 11:45:12;;;;;;;7.10;2.40;;;4.20;99.90;;;;;;4998302;28;20074;-83
2020/12/30 11:47:37;;;;;;;5.10;2.57;;;4.20;99.90;;;;;;4993653;28;20373;-83
2020/12/30 11:50:05;;;;;;;3.70;2.70;;;4.10;99.90;;;;;;4991795;28;20021;-83
2020/12/30 11:52:30;;;;;;;4.97;2.93;;;4.10;99.90;;;;;;4991243;28;20018;-80
2020/12/30 11:54:56;;;;;;;4.47;2.53;;;4.10;99.90;;;;;;4992771;28;20031;-80
2020/12/30 11:57:22;;;;;;;4.40;2.50;;;4.10;99.90;;;;;;4976441;28;20023;-80
2020/12/30 11:59:47;;;;;;;4.43;2.50;;;4.10;99.90;;;;;;4992032;28;20049;-80
2020/12/30 12:02:13;;;;;;;5.03;2.70;;;4.10;99.90;;;;;;5033747;28;20026;-79
2020/12/30 12:04:39;;;;;;;5.20;2.90;;;4.10;99.90;;;;;;4991959;28;20097;-79
2020/12/30 12:07:04;;;;;;;8.73;2.80;;;4.20;99.90;;;;;;4992530;28;20455;-79
2020/12/30 12:09:30;;;;;;;4.77;2.80;;;4.20;99.90;;;;;;4994595;28;20030;-79
2020/12/30 12:11:55;;;;;;;6.17;3.10;;;4.10;99.90;;;;;;4986051;28;20367;-79
2020/12/30 12:14:21;;;;;;;6.17;3.33;;;4.20;99.90;;;;;;4992598;28;20068;-79
2020/12/30 12:16:55;;;;;;;4.53;2.90;;;4.20;99.90;;;;;;5005287;28;20037;-79
2020/12/30 12:19:21;;;;;;;6.97;2.90;;;4.30;99.90;;;;;;4992058;28;20022;-79
2020/12/30 12:21:46;;;;;;;5.73;2.87;;;4.30;99.90;;;;;;5005834;28;20029;-79
2020/12/30 12:24:13;;;;;;;6.53;2.63;;;4.30;99.90;;;;;;4992472;28;20019;-80
2020/12/30 12:26:39;;;;;;;4.70;2.60;;;4.40;99.90;;;;;;4977932;28;20018;-79
2020/12/30 12:29:18;;;;;;;9.30;3.20;;;4.40;99.90;;;;;;4982231;28;20023;-79
2020/12/30 12:31:44;;;;;;;6.30;2.60;;;4.40;99.90;;;;;;5029067;28;20803;-85
2020/12/30 12:34:10;;;;;;;6.07;2.57;;;4.40;99.90;;;;;;4985074;28;20046;-85
2020/12/30 12:36:35;;;;;;;5.80;2.60;;;4.50;99.90;;;;;;4989098;28;20461;-85
2020/12/30 12:39:02;;;;;;;3.30;2.50;;;4.50;99.90;;;;;;4992125;28;20026;-85
2020/12/30 12:41:28;;;;;;;4.87;2.77;;;4.60;99.90;;;;;;4978553;28;20027;-85
2020/12/30 12:43:53;;;;;;;6.30;3.23;;;4.60;99.90;;;;;;4983626;28;20493;-85
2020/12/30 12:46:19;;;;;;;4.30;2.40;;;4.60;99.90;;;;;;5000179;28;20042;-85
2020/12/30 12:48:45;;;;;;;6.13;2.40;;;4.60;99.90;;;;;;4995143;28;20033;-85
2020/12/30 12:51:11;;;;;;;10.80;2.47;;;4.60;99.90;;;;;;5001664;28;20018;-85
2020/12/30 12:53:37;;;;;;;5.50;2.17;;;4.70;99.90;;;;;;4975230;28;20032;-85
2020/12/30 12:56:04;;;;;;;10.57;2.30;;;4.60;99.90;;;;;;5010549;28;20029;-85